LiveATC.Net - Listen to live air traffic control over the Internet!


ICAO: ESVQ  IATA:   Airport: Koping Airport
City: Koping
Country: Sweden   Continent: Europe
ESOW METAR Weather: ESOW 241650Z 23005KT 200V280 CAVOK 04/01 Q1018
ESVQ Flight Activity (FlightAware)
ESVQ Webcam:  (Airport Webcams) 

ESVQ CTAF
Feed Status: DOWN
Last heard on: 2021-09-28 07:56:21 (118 days 9 hours 24 minutes ago)
Archive Access: ESVQ CTAF
FacilityFrequency
Koping CTAF123.150

NOTICE

Unauthorized use prohibited. See LiveATC.net Terms of Service


Airport/ARTCC Code
Frequency Search
(e.g., 124.400, 128.75)
Site-wide search
 


Browse Feeds
Top 50 Feeds
HF Oceanic Feeds
Coverage Map
Bad Weather Areas

LiveATC FAQ
Offer LiveATC feed
Contact LiveATC.net
Press Inquiries

LiveATC on iPhone
LiveATC on Android

LiveATC Mobile
(Mobile browser)

ATC Audio Archives
Interesting Recordings

LiveATC Forums


Home Page
About LiveATC.net
Make a Donation
Terms of Use
Privacy Policy

Canadian Air Freqs

AIRMETs/SIGMETs

FAA Airport Status
NAS Status
Arrival Demand


Server Software By:
Icecast.org
Liquidsoap